Time;durP1;ratioP1;P1;durP2;ratioP2;P2;SDS_P1;SDS_P2;PMS_P1;PMS_P2;Temp;Humidity;BMP_temperature;BMP_pressure;BME280_temperature;BME280_humidity;BME280_pressure;Samples;Min_cycle;Max_cycle;Signal;HPM_P1;HPM_P2
2021/12/01 00:01:45;;;;;;;;;;;8.00;99.90;;;;;;4929758;28;19926;-85
2021/12/01 00:04:25;;;;;;;;;;;8.10;99.90;;;;;;4928936;28;20001;-83
2021/12/01 00:06:51;;;;;;;;;;;8.10;99.90;;;;;;4928227;28;19937;-82
2021/12/01 00:09:17;;;;;;;;;;;8.10;99.90;;;;;;4929171;28;19918;-82
2021/12/01 00:12:20;;;;;;;;;;;8.10;99.90;;;;;;4929596;28;19946;-85
2021/12/01 00:15:05;;;;;;;;;;;7.70;99.90;;;;;;4928489;28;21891;-84
2021/12/01 00:17:56;;;;;;;;;;;8.30;99.90;;;;;;4929395;28;19926;-84
2021/12/01 00:20:21;;;;;;;;;;;8.40;99.90;;;;;;4929967;28;19942;-83
2021/12/01 00:22:53;;;;;;;;;;;8.40;99.90;;;;;;4931054;28;19922;-83
2021/12/01 00:25:29;;;;;;;;;;;8.40;99.90;;;;;;4943828;28;20114;-83
2021/12/01 00:27:55;;;;;;;;;;;8.50;99.90;;;;;;4928385;28;19922;-83
2021/12/01 00:30:27;;;;;;;;;;;8.50;99.90;;;;;;4931078;28;20358;-83
2021/12/01 00:32:53;;;;;;;;;;;7.80;99.90;;;;;;4930810;28;19926;-82
2021/12/01 00:35:28;;;;;;;;;;;8.60;99.90;;;;;;4932263;28;20062;-82
2021/12/01 00:38:21;;;;;;;;;;;;;;;;;;;;;
2021/12/01 00:41:07;;;;;;;;;;;8.20;99.90;;;;;;4903230;28;20066;-82
2021/12/01 00:43:53;;;;;;;;;;;8.70;99.90;;;;;;4929045;28;19926;-83
2021/12/01 00:46:37;;;;;;;;;;;8.80;99.90;;;;;;4934194;28;19930;-82
2021/12/01 00:49:28;;;;;;;;;;;9.20;99.90;;;;;;4932779;28;19922;-83
2021/12/01 00:52:19;;;;;;;;;;;8.80;99.90;;;;;;4931390;28;19931;-82
2021/12/01 00:55:10;;;;;;;;;;;8.90;99.90;;;;;;4931925;28;19922;-83
2021/12/01 00:58:35;;;;;;;;;;;8.90;99.90;;;;;;4944436;28;20021;-84
2021/12/01 01:01:25;;;;;;;;;;;8.90;99.90;;;;;;4929047;28;19926;-82
2021/12/01 01:03:51;;;;;;;;;;;8.00;99.90;;;;;;4929741;28;20235;-83
2021/12/01 01:06:29;;;;;;;;;;;9.00;99.90;;;;;;4929864;28;19929;-83
2021/12/01 01:08:55;;;;;;;;;;;9.00;99.90;;;;;;4929599;28;19949;-83
2021/12/01 01:17:00;;;;;;;;;;;9.10;99.90;;;;;;4926919;28;19986;-83
2021/12/01 01:19:26;;;;;;;;;;;9.10;99.90;;;;;;4928715;28;19930;-83
2021/12/01 01:21:52;;;;;;;;;;;9.10;99.90;;;;;;4929197;28;19977;-84
2021/12/01 01:24:18;;;;;;;;;;;9.20;99.90;;;;;;4929527;28;19972;-84
2021/12/01 01:26:44;;;;;;;;;;;9.20;99.90;;;;;;4945027;28;20065;-88
2021/12/01 01:29:10;;;;;;;;;;;9.20;99.90;;;;;;4930067;28;19933;-84
2021/12/01 01:31:36;;;;;;;;;;;9.20;99.90;;;;;;4928715;28;20338;-82
2021/12/01 01:34:01;;;;;;;;;;;9.20;99.90;;;;;;4929532;28;19949;-82
2021/12/01 01:36:28;;;;;;;;;;;9.20;99.90;;;;;;4929726;28;19957;-82
2021/12/01 01:38:54;;;;;;;;;;;9.20;99.90;;;;;;4928421;29;20179;-81
2021/12/01 01:41:19;;;;;;;;;;;9.20;99.90;;;;;;4940747;28;19930;-82
2021/12/01 01:43:45;;;;;;;;;;;9.30;99.90;;;;;;4930402;28;19962;-83
2021/12/01 01:46:12;;;;;;;;;;;9.30;99.90;;;;;;4928554;28;19968;-83
2021/12/01 01:48:53;;;;;;;;;;;9.30;99.90;;;;;;4929285;28;19926;-83
2021/12/01 01:51:20;;;;;;;;;;;9.30;99.90;;;;;;4935888;28;19937;-82
2021/12/01 01:53:47;;;;;;;;;;;9.30;99.90;;;;;;4930231;28;19937;-83
2021/12/01 01:56:12;;;;;;;;;;;9.70;99.90;;;;;;4927803;28;19926;-82
2021/12/01 01:58:38;;;;;;;;;;;9.30;99.90;;;;;;4930073;28;19989;-82
2021/12/01 02:01:06;;;;;;;;;;;10.00;99.90;;;;;;4928180;28;19973;-83
2021/12/01 02:03:37;;;;;;;;;;;9.40;99.90;;;;;;4932861;28;19922;-81
2021/12/01 02:06:03;;;;;;;;;;;9.40;99.90;;;;;;4928584;28;20013;-84
2021/12/01 02:08:30;;;;;;;;;;;9.40;99.90;;;;;;4930828;28;20248;-82
2021/12/01 02:11:00;;;;;;;;;;;9.40;99.90;;;;;;4927333;28;20337;-83
2021/12/01 02:13:26;;;;;;;;;;;9.40;99.90;;;;;;4928474;28;19926;-83
2021/12/01 02:15:53;;;;;;;;;;;9.40;99.90;;;;;;4926354;28;19984;-85
2021/12/01 02:18:19;;;;;;;;;;;9.40;99.90;;;;;;4928162;28;20139;-86
2021/12/01 02:21:11;;;;;;;;;;;9.70;99.90;;;;;;4928336;28;19922;-83
2021/12/01 02:23:38;;;;;;;;;;;9.40;99.90;;;;;;4926973;28;19968;-82
2021/12/01 02:26:04;;;;;;;;;;;9.50;99.90;;;;;;4928489;28;20017;-82
2021/12/01 02:28:30;;;;;;;;;;;11.20;99.90;;;;;;4932503;28;19926;-81
2021/12/01 02:30:56;;;;;;;;;;;9.40;99.90;;;;;;4990806;23;19962;-84
2021/12/01 02:33:22;;;;;;;;;;;9.50;99.90;;;;;;4942750;28;19977;-82
2021/12/01 02:35:47;;;;;;;;;;;9.50;99.90;;;;;;4943414;28;19918;-83
2021/12/01 02:38:13;;;;;;;;;;;9.50;99.90;;;;;;4950824;28;19930;-83
2021/12/01 02:40:38;;;;;;;;;;;9.50;99.90;;;;;;4946387;28;19962;-84
2021/12/01 02:43:04;;;;;;;;;;;9.50;99.90;;;;;;4943498;28;20425;-87
2021/12/01 02:45:29;;;;;;;;;;;9.50;99.90;;;;;;4944975;28;19932;-88
2021/12/01 02:47:55;;;;;;;;;;;9.50;99.90;;;;;;4946669;28;19923;-87
2021/12/01 02:50:20;;;;;;;;;;;9.50;99.90;;;;;;4953850;28;19926;-85
2021/12/01 02:52:46;;;;;;;;;;;9.50;99.90;;;;;;4944223;28;19970;-85
2021/12/01 02:55:15;;;;;;;;;;;9.40;99.90;;;;;;4942417;29;19927;-85
2021/12/01 02:57:51;;;;;;;;;;;9.50;99.90;;;;;;4944484;28;19934;-84
2021/12/01 03:00:18;;;;;;;;;;;9.50;99.90;;;;;;4943161;29;19927;-84
2021/12/01 03:02:44;;;;;;;;;;;9.50;99.90;;;;;;4945127;28;20315;-83
2021/12/01 03:05:10;;;;;;;;;;;9.50;99.90;;;;;;4944070;28;20418;-85
2021/12/01 03:07:36;;;;;;;;;;;9.50;99.90;;;;;;4943943;28;19929;-84
2021/12/01 03:10:02;;;;;;;;;;;9.50;99.90;;;;;;4941633;28;19922;-83
2021/12/01 03:12:29;;;;;;;;;;;9.50;99.90;;;;;;4941936;28;20320;-85
2021/12/01 03:14:54;;;;;;;;;;;9.50;99.90;;;;;;4944612;28;20010;-84
2021/12/01 03:17:20;;;;;;;;;;;9.50;99.90;;;;;;4940673;28;20013;-85
2021/12/01 03:19:45;;;;;;;;;;;9.60;99.90;;;;;;4943127;28;19934;-85
2021/12/01 03:22:14;;;;;;;;;;;9.60;99.90;;;;;;4943044;28;19973;-85
2021/12/01 03:24:40;;;;;;;;;;;9.60;99.90;;;;;;4943671;29;19937;-84
2021/12/01 03:27:06;;;;;;;;;;;9.60;99.90;;;;;;4941725;29;20037;-86
2021/12/01 03:29:31;;;;;;;;;;;10.40;99.90;;;;;;4944720;28;19937;-87
2021/12/01 03:31:57;;;;;;;;;;;9.60;99.90;;;;;;4942360;28;19936;-87
2021/12/01 03:34:23;;;;;;;;;;;9.60;99.90;;;;;;4951014;28;19929;-89
2021/12/01 03:36:49;;;;;;;;;;;9.60;99.90;;;;;;4941899;29;19949;-83
2021/12/01 03:39:14;;;;;;;;;;;9.60;99.90;;;;;;4943622;28;20014;-86
2021/12/01 03:41:40;;;;;;;;;;;9.60;99.90;;;;;;4942736;28;19926;-86
2021/12/01 03:44:06;;;;;;;;;;;9.60;99.90;;;;;;4942002;28;19918;-83
2021/12/01 03:46:31;;;;;;;;;;;9.60;99.90;;;;;;4941730;28;20307;-84
2021/12/01 03:48:57;;;;;;;;;;;9.60;99.90;;;;;;4946526;28;19965;-85
2021/12/01 03:51:23;;;;;;;;;;;9.60;99.90;;;;;;4941465;28;19922;-85
2021/12/01 03:53:49;;;;;;;;;;;9.60;99.90;;;;;;4941588;28;19922;-85
2021/12/01 03:56:14;;;;;;;;;;;10.40;99.90;;;;;;4944026;28;20449;-85
2021/12/01 03:58:40;;;;;;;;;;;9.60;99.90;;;;;;4943447;28;19931;-85
2021/12/01 04:01:10;;;;;;;;;;;9.60;99.90;;;;;;4942526;29;19938;-84
2021/12/01 04:03:35;;;;;;;;;;;10.10;99.90;;;;;;4942745;29;20361;-84
2021/12/01 04:06:01;;;;;;;;;;;9.60;99.90;;;;;;4942296;28;19926;-83
2021/12/01 04:08:26;;;;;;;;;;;9.60;99.90;;;;;;4943407;28;19929;-86
2021/12/01 04:10:52;;;;;;;;;;;9.60;99.90;;;;;;4940938;28;19930;-84
2021/12/01 04:13:17;;;;;;;;;;;9.60;99.90;;;;;;4942038;28;19930;-84
2021/12/01 04:15:43;;;;;;;;;;;9.50;99.90;;;;;;4943795;28;19926;-84
2021/12/01 04:18:09;;;;;;;;;;;9.60;99.90;;;;;;4942229;28;20285;-85
2021/12/01 04:20:34;;;;;;;;;;;9.60;99.90;;;;;;4943560;29;19931;-84
2021/12/01 04:23:38;;;;;;;;;;;9.60;99.90;;;;;;4945762;28;19918;-86
2021/12/01 04:26:13;;;;;;;;;;;9.50;99.90;;;;;;4869546;29;19930;-84
2021/12/01 04:28:39;;;;;;;;;;;9.50;99.90;;;;;;4941327;28;19922;-84
2021/12/01 04:31:04;;;;;;;;;;;9.50;99.90;;;;;;4945270;28;19930;-83
2021/12/01 04:33:30;;;;;;;;;;;9.50;99.90;;;;;;4945493;29;20025;-84
2021/12/01 04:35:56;;;;;;;;;;;9.50;99.90;;;;;;4942198;28;19929;-85
2021/12/01 04:38:33;;;;;;;;;;;9.50;99.90;;;;;;4942985;28;19976;-83
2021/12/01 04:40:59;;;;;;;;;;;9.50;99.90;;;;;;4933260;28;19922;-85
2021/12/01 04:43:38;;;;;;;;;;;10.50;99.90;;;;;;4943062;28;19985;-87
2021/12/01 04:46:04;;;;;;;;;;;9.90;99.90;;;;;;4942793;28;19954;-85
2021/12/01 04:48:30;;;;;;;;;;;10.20;99.90;;;;;;4941612;28;19918;-86
2021/12/01 04:50:59;;;;;;;;;;;9.50;99.90;;;;;;4938524;29;19937;-85
2021/12/01 04:53:25;;;;;;;;;;;9.50;99.90;;;;;;4940756;28;19969;-87
2021/12/01 04:55:51;;;;;;;;;;;9.40;99.90;;;;;;4939518;28;19925;-85
2021/12/01 04:58:21;;;;;;;;;;;11.10;99.90;;;;;;4943006;28;20128;-83
2021/12/01 05:01:14;;;;;;;;;;;9.50;99.90;;;;;;4941307;29;19922;-85
2021/12/01 05:03:40;;;;;;;;;;;9.40;99.90;;;;;;4944360;28;20303;-84
2021/12/01 05:06:06;;;;;;;;;;;9.40;99.90;;;;;;4940719;28;20026;-85
2021/12/01 05:08:31;;;;;;;;;;;9.30;99.90;;;;;;4941581;29;20348;-83
2021/12/01 05:11:06;;;;;;;;;;;9.40;99.90;;;;;;4931145;29;19922;-86
2021/12/01 05:13:32;;;;;;;;;;;9.40;99.90;;;;;;4952202;28;20270;-85
2021/12/01 05:15:58;;;;;;;;;;;9.40;99.90;;;;;;4947037;28;20335;-86
2021/12/01 05:18:23;;;;;;;;;;;9.40;99.90;;;;;;4938280;28;19990;-85
2021/12/01 05:20:49;;;;;;;;;;;9.40;99.90;;;;;;4941479;28;20313;-86
2021/12/01 05:23:18;;;;;;;;;;;9.80;99.90;;;;;;4941764;28;19924;-86
2021/12/01 05:25:44;;;;;;;;;;;9.40;99.90;;;;;;4938555;28;20351;-84
2021/12/01 05:28:12;;;;;;;;;;;9.40;99.90;;;;;;4943494;28;20010;-87
2021/12/01 05:30:58;;;;;;;;;;;9.40;99.90;;;;;;4942181;28;19922;-86
2021/12/01 05:33:24;;;;;;;;;;;10.00;99.90;;;;;;4936776;28;19949;-85
2021/12/01 05:35:52;;;;;;;;;;;9.40;99.90;;;;;;4942913;28;20267;-86
2021/12/01 05:38:18;;;;;;;;;;;9.40;99.90;;;;;;4949624;28;19926;-85
2021/12/01 05:40:47;;;;;;;;;;;9.30;99.90;;;;;;4942561;28;19938;-83
2021/12/01 05:43:13;;;;;;;;;;;9.30;99.90;;;;;;4939847;28;19923;-86
2021/12/01 05:45:51;;;;;;;;;;;9.30;99.90;;;;;;4943196;28;20382;-87
2021/12/01 05:48:16;;;;;;;;;;;9.70;99.90;;;;;;4944684;28;19977;-83
2021/12/01 05:50:48;;;;;;;;;;;9.30;99.90;;;;;;4949340;28;20028;-85
2021/12/01 05:53:20;;;;;;;;;;;9.30;99.90;;;;;;4938604;28;19938;-88
2021/12/01 05:55:45;;;;;;;;;;;8.30;99.90;;;;;;4936904;28;20359;-85
2021/12/01 05:58:11;;;;;;;;;;;8.70;99.90;;;;;;4942058;28;20001;-84
2021/12/01 06:00:36;;;;;;;;;;;9.20;99.90;;;;;;4941832;29;19922;-88
2021/12/01 06:03:31;;;;;;;;;;;9.40;99.90;;;;;;4943754;28;20005;-86
2021/12/01 06:06:00;;;;;;;;;;;9.10;99.90;;;;;;4937672;29;19957;-84
2021/12/01 06:08:29;;;;;;;;;;;9.20;99.90;;;;;;4945963;28;19953;-82
2021/12/01 06:11:10;;;;;;;;;;;9.20;99.90;;;;;;4947635;28;20371;-86
2021/12/01 06:13:56;;;;;;;;;;;9.20;99.90;;;;;;4953875;28;19958;-84
2021/12/01 06:16:33;;;;;;;;;;;9.20;99.90;;;;;;4947879;28;19957;-83
2021/12/01 06:19:14;;;;;;;;;;;9.10;99.90;;;;;;4945389;28;19923;-85
2021/12/01 06:21:50;;;;;;;;;;;9.50;99.90;;;;;;4951252;28;19933;-84
2021/12/01 06:24:25;;;;;;;;;;;9.20;99.90;;;;;;4947588;28;19922;-86
2021/12/01 06:26:53;;;;;;;;;;;9.80;99.90;;;;;;4941240;28;19937;-87
2021/12/01 06:29:38;;;;;;;;;;;9.10;99.90;;;;;;4947258;28;20012;-85
2021/12/01 06:35:38;;;;;;;;;;;9.00;99.90;;;;;;4959757;28;20303;-87
2021/12/01 06:38:04;;;;;;;;;;;9.00;99.90;;;;;;4938307;29;20021;-84
2021/12/01 06:40:55;;;;;;;;;;;9.00;99.90;;;;;;4945884;28;20016;-86
2021/12/01 06:46:36;;;;;;;;;;;9.00;99.90;;;;;;4949187;28;19979;-90
2021/12/01 06:49:20;;;;;;;;;;;8.90;99.90;;;;;;4948455;28;19922;-88
2021/12/01 06:52:20;;;;;;;;;;;9.00;99.90;;;;;;4946121;28;20012;-85
2021/12/01 06:54:56;;;;;;;;;;;9.50;99.90;;;;;;4948928;28;19928;-89
2021/12/01 06:57:22;;;;;;;;;;;8.20;99.90;;;;;;4949054;28;20400;-85
2021/12/01 06:59:50;;;;;;;;;;;8.80;99.90;;;;;;4957370;28;19921;-83
2021/12/01 07:02:17;;;;;;;;;;;9.60;99.90;;;;;;4956580;28;19933;-89
2021/12/01 07:04:46;;;;;;;;;;;8.80;99.90;;;;;;4947404;28;19932;-86
2021/12/01 07:07:24;;;;;;;;;;;8.80;99.90;;;;;;4949393;28;20345;-87
2021/12/01 07:09:58;;;;;;;;;;;7.70;99.90;;;;;;4948642;28;19922;-84
2021/12/01 07:12:33;;;;;;;;;;;8.00;99.90;;;;;;4950311;28;19930;-88
2021/12/01 07:15:10;;;;;;;;;;;8.80;99.90;;;;;;4948933;28;20468;-88
2021/12/01 07:17:51;;;;;;;;;;;7.70;99.90;;;;;;4951944;28;20128;-86
2021/12/01 07:20:17;;;;;;;;;;;8.80;99.90;;;;;;4945915;28;19923;-85
2021/12/01 07:22:48;;;;;;;;;;;8.80;99.90;;;;;;4919905;28;20901;-85
2021/12/01 07:25:15;;;;;;;;;;;8.80;99.90;;;;;;4950691;28;19952;-86
2021/12/01 07:30:43;;;;;;;;;;;8.80;99.90;;;;;;4951237;28;20614;-85
2021/12/01 07:33:09;;;;;;;;;;;8.70;99.90;;;;;;4946240;28;20342;-88
2021/12/01 07:35:35;;;;;;;;;;;8.80;99.90;;;;;;4950222;28;19921;-87
2021/12/01 07:38:23;;;;;;;;;;;8.70;99.90;;;;;;4945032;28;20333;-85
2021/12/01 07:40:49;;;;;;;;;;;9.20;99.90;;;;;;4870481;29;19958;-83
2021/12/01 07:43:22;;;;;;;;;;;8.70;99.90;;;;;;4939725;28;19918;-86
2021/12/01 07:46:01;;;;;;;;;;;8.70;99.90;;;;;;4947096;28;20092;-84
2021/12/01 07:48:27;;;;;;;;;;;8.70;99.90;;;;;;4949611;28;19972;-85
2021/12/01 07:51:43;;;;;;;;;;;8.80;99.90;;;;;;4949990;28;20333;-86
2021/12/01 07:54:27;;;;;;;;;;;8.80;99.90;;;;;;4919266;28;19930;-83
2021/12/01 07:57:06;;;;;;;;;;;8.80;99.90;;;;;;4946735;28;19972;-84
2021/12/01 08:00:12;;;;;;;;;;;8.60;99.90;;;;;;4949825;28;20024;-85
2021/12/01 08:05:39;;;;;;;;;;;8.10;99.90;;;;;;4918142;28;20008;-84
2021/12/01 08:08:10;;;;;;;;;;;8.90;99.90;;;;;;4959324;28;19925;-92
2021/12/01 08:10:36;;;;;;;;;;;9.50;99.90;;;;;;4961695;28;20046;-86
2021/12/01 08:13:17;;;;;;;;;;;8.90;99.90;;;;;;4954002;28;20399;-87
2021/12/01 08:15:45;;;;;;;;;;;8.90;99.90;;;;;;4945101;28;19976;-92
2021/12/01 08:21:59;;;;;;;;;;;9.00;99.90;;;;;;4964839;28;20466;-91
2021/12/01 08:24:57;;;;;;;;;;;8.70;99.90;;;;;;4932418;28;19920;-90
2021/12/01 08:27:26;;;;;;;;;;;8.80;99.90;;;;;;4943219;28;19922;-87
2021/12/01 08:30:22;;;;;;;;;;;8.90;99.90;;;;;;4961968;28;19944;-87
2021/12/01 08:32:52;;;;;;;;;;;8.90;99.90;;;;;;4951426;28;19965;-88
2021/12/01 08:35:30;;;;;;;;;;;8.90;99.90;;;;;;4944921;28;19922;-90
2021/12/01 08:38:14;;;;;;;;;;;8.90;99.90;;;;;;4949237;28;19926;-85
2021/12/01 08:40:44;;;;;;;;;;;8.90;99.90;;;;;;4949801;28;19926;-87
2021/12/01 08:43:22;;;;;;;;;;;8.80;99.90;;;;;;4949036;28;20045;-91
2021/12/01 08:46:09;;;;;;;;;;;8.90;99.90;;;;;;4956550;28;19933;-87
2021/12/01 08:48:41;;;;;;;;;;;8.90;99.90;;;;;;4952131;28;20316;-86
2021/12/01 08:51:18;;;;;;;;;;;8.90;99.90;;;;;;4950975;28;19926;-86
2021/12/01 08:53:47;;;;;;;;;;;8.90;99.90;;;;;;4953311;28;19922;-85
2021/12/01 08:56:14;;;;;;;;;;;8.90;99.90;;;;;;4950554;28;20025;-85
2021/12/01 08:58:40;;;;;;;;;;;9.00;99.90;;;;;;4945954;28;19948;-84
2021/12/01 09:01:43;;;;;;;;;;;10.40;99.90;;;;;;4948373;28;19945;-85
2021/12/01 09:04:09;;;;;;;;;;;8.90;99.90;;;;;;4847790;29;20043;-83
2021/12/01 09:06:35;;;;;;;;;;;8.80;99.90;;;;;;4854642;29;20015;-89
2021/12/01 09:09:00;;;;;;;;;;;8.80;99.90;;;;;;4895998;28;20047;-87
2021/12/01 09:11:32;;;;;;;;;;;11.30;99.90;;;;;;4957067;28;19922;-90
2021/12/01 09:13:58;;;;;;;;;;;8.70;99.90;;;;;;4953785;28;19922;-90
2021/12/01 09:16:25;;;;;;;;;;;8.70;99.90;;;;;;4936793;28;19933;-90
2021/12/01 09:19:26;;;;;;;;;;;8.70;99.90;;;;;;4935787;29;20362;-89
2021/12/01 09:21:54;;;;;;;;;;;8.20;99.90;;;;;;4953579;28;19929;-87
2021/12/01 09:24:21;;;;;;;;;;;8.60;99.90;;;;;;4944938;28;19930;-86
2021/12/01 09:26:47;;;;;;;;;;;8.70;99.90;;;;;;4941704;28;20005;-86
2021/12/01 09:29:19;;;;;;;;;;;8.60;99.90;;;;;;4953721;28;19922;-87
2021/12/01 09:31:48;;;;;;;;;;;8.60;99.90;;;;;;4964495;28;20366;-87
2021/12/01 09:34:41;;;;;;;;;;;7.70;99.90;;;;;;4959686;28;19985;-87
2021/12/01 09:37:32;;;;;;;;;;;9.30;99.90;;;;;;4947955;28;20004;-86
2021/12/01 09:40:02;;;;;;;;;;;8.50;99.90;;;;;;4963515;28;19922;-89
2021/12/01 09:45:53;;;;;;;;;;;9.00;99.90;;;;;;4949599;28;20022;-84
2021/12/01 09:48:41;;;;;;;;;;;8.60;99.90;;;;;;4950596;28;19928;-85
2021/12/01 09:54:39;;;;;;;;;;;6.70;99.90;;;;;;4946220;28;20013;-85
2021/12/01 09:57:38;;;;;;;;;;;7.40;99.90;;;;;;4936900;28;19922;-85
2021/12/01 10:03:23;;;;;;;;;;;8.70;99.90;;;;;;4956058;28;19926;-85
2021/12/01 10:06:24;;;;;;;;;;;9.60;99.90;;;;;;4959819;28;20005;-85
2021/12/01 10:09:18;;;;;;;;;;;8.80;99.90;;;;;;4945179;28;20075;-85
2021/12/01 10:11:43;;;;;;;;;;;8.70;99.90;;;;;;4949925;28;20026;-85
2021/12/01 10:14:40;;;;;;;;;;;10.70;99.90;;;;;;4950319;28;20038;-85
2021/12/01 10:17:24;;;;;;;;;;;9.40;99.90;;;;;;4948958;29;19962;-85
2021/12/01 10:20:39;;;;;;;;;;;10.20;99.90;;;;;;4917932;28;19922;-84
2021/12/01 10:23:25;;;;;;;;;;;10.40;99.90;;;;;;4946834;28;19969;-86
2021/12/01 10:25:51;;;;;;;;;;;8.70;99.90;;;;;;4946661;28;19992;-86
2021/12/01 10:28:51;;;;;;;;;;;10.70;99.90;;;;;;4927031;29;20545;-85
2021/12/01 10:31:48;;;;;;;;;;;8.80;99.90;;;;;;4943328;28;19927;-86
2021/12/01 10:34:33;;;;;;;;;;;9.40;99.90;;;;;;4949043;29;19933;-84
2021/12/01 10:37:28;;;;;;;;;;;9.30;99.90;;;;;;4948274;29;19923;-86
2021/12/01 10:40:08;;;;;;;;;;;9.10;99.90;;;;;;4931287;29;19962;-87
2021/12/01 10:42:34;;;;;;;;;;;9.10;99.90;;;;;;4948002;29;19926;-84
2021/12/01 10:45:05;;;;;;;;;;;9.00;99.90;;;;;;4949048;29;20043;-87
2021/12/01 10:47:41;;;;;;;;;;;8.90;99.90;;;;;;4949967;28;19949;-84
2021/12/01 10:50:07;;;;;;;;;;;8.80;99.90;;;;;;4952542;28;19949;-87
2021/12/01 10:52:36;;;;;;;;;;;8.70;99.90;;;;;;4952403;29;19927;-85
2021/12/01 10:55:12;;;;;;;;;;;8.70;99.90;;;;;;4952391;29;19945;-87
2021/12/01 10:57:42;;;;;;;;;;;8.70;99.90;;;;;;4955368;29;20333;-87
2021/12/01 11:00:17;;;;;;;;;;;8.80;99.90;;;;;;4953057;29;19926;-86
2021/12/01 11:02:52;;;;;;;;;;;8.90;99.90;;;;;;4952138;29;19926;-84
2021/12/01 11:05:25;;;;;;;;;;;9.00;99.90;;;;;;4952124;29;20065;-85
2021/12/01 11:10:27;;;;;;;;;;;9.40;99.90;;;;;;5006851;23;19926;-89
2021/12/01 11:25:41;;;;;;;;;;;9.00;99.90;;;;;;4947842;28;20560;-85
2021/12/01 11:28:12;;;;;;;;;;;9.00;99.90;;;;;;4936770;29;19922;-88
2021/12/01 11:30:38;;;;;;;;;;;10.00;99.90;;;;;;4923936;29;19930;-85
2021/12/01 11:33:03;;;;;;;;;;;9.30;99.90;;;;;;4936558;29;20265;-84
2021/12/01 11:35:32;;;;;;;;;;;8.90;99.90;;;;;;4937019;29;19927;-86
2021/12/01 11:37:58;;;;;;;;;;;8.90;99.90;;;;;;4936151;29;19945;-83
2021/12/01 11:40:28;;;;;;;;;;;8.80;99.90;;;;;;4936331;29;20345;-85
2021/12/01 11:42:54;;;;;;;;;;;8.80;99.90;;;;;;4920589;29;19961;-86
2021/12/01 11:45:20;;;;;;;;;;;8.70;99.90;;;;;;4937085;28;19953;-84
2021/12/01 11:47:47;;;;;;;;;;;8.60;99.90;;;;;;4937081;29;19960;-85
2021/12/01 11:50:27;;;;;;;;;;;8.50;99.90;;;;;;4938060;29;19922;-83
2021/12/01 11:53:02;;;;;;;;;;;8.40;99.90;;;;;;4945090;29;19930;-85
2021/12/01 11:55:46;;;;;;;;;;;8.30;99.90;;;;;;4935716;29;20307;-87
2021/12/01 11:58:32;;;;;;;;;;;8.20;99.90;;;;;;4918815;28;19926;-86
2021/12/01 12:00:57;;;;;;;;;;;8.10;99.90;;;;;;4935877;29;19989;-86
2021/12/01 12:03:25;;;;;;;;;;;8.00;99.90;;;;;;4932408;29;19956;-84
2021/12/01 12:06:23;;;;;;;;;;;8.10;99.90;;;;;;4921922;29;19923;-83
2021/12/01 12:08:54;;;;;;;;;;;7.90;99.90;;;;;;4902384;29;20283;-85
2021/12/01 12:11:36;;;;;;;;;;;7.90;99.90;;;;;;4935105;29;19922;-87
2021/12/01 12:14:14;;;;;;;;;;;7.90;99.90;;;;;;4935547;29;19926;-87
2021/12/01 12:16:40;;;;;;;;;;;7.90;99.90;;;;;;4935824;29;19974;-85
2021/12/01 12:19:06;;;;;;;;;;;7.80;99.90;;;;;;4926372;29;19969;-86
2021/12/01 12:21:43;;;;;;;;;;;7.90;99.90;;;;;;4928793;29;19930;-86
2021/12/01 12:24:17;;;;;;;;;;;7.90;99.90;;;;;;4917369;29;19934;-84
2021/12/01 12:26:44;;;;;;;;;;;7.90;99.90;;;;;;4945963;28;19976;-87
2021/12/01 12:29:14;;;;;;;;;;;7.80;99.90;;;;;;4934784;29;19957;-85
2021/12/01 12:31:40;;;;;;;;;;;7.80;99.90;;;;;;4936281;28;19930;-88
2021/12/01 12:34:12;;;;;;;;;;;7.80;99.90;;;;;;4934268;29;19923;-83
2021/12/01 12:36:45;;;;;;;;;;;7.80;99.90;;;;;;4954543;28;19922;-83
2021/12/01 12:39:16;;;;;;;;;;;7.70;99.90;;;;;;4953665;28;20318;-87
2021/12/01 12:42:12;;;;;;;;;;;7.80;99.90;;;;;;4954589;28;19922;-86
2021/12/01 12:44:45;;;;;;;;;;;7.70;99.90;;;;;;4935375;28;19933;-85
2021/12/01 12:47:15;;;;;;;;;;;7.70;99.90;;;;;;4953376;28;19922;-86
2021/12/01 12:49:43;;;;;;;;;;;7.60;99.90;;;;;;4937817;29;19969;-84
2021/12/01 12:52:24;;;;;;;;;;;7.50;99.90;;;;;;4944400;28;19929;-85
2021/12/01 12:54:54;;;;;;;;;;;7.50;99.90;;;;;;4953896;28;19922;-86
2021/12/01 12:57:20;;;;;;;;;;;7.40;99.90;;;;;;4953677;28;19933;-85
2021/12/01 12:59:46;;;;;;;;;;;7.50;99.90;;;;;;4954402;28;19937;-83
2021/12/01 13:02:15;;;;;;;;;;;7.40;99.90;;;;;;4958710;28;19986;-82
2021/12/01 13:04:59;;;;;;;;;;;7.40;99.90;;;;;;4969872;28;20231;-86
2021/12/01 13:07:31;;;;;;;;;;;7.40;99.90;;;;;;4959271;28;20166;-85
2021/12/01 13:10:15;;;;;;;;;;;7.40;99.90;;;;;;4954402;28;20151;-85
2021/12/01 13:13:19;;;;;;;;;;;7.40;99.90;;;;;;4957252;28;19949;-84
2021/12/01 13:15:52;;;;;;;;;;;7.40;99.90;;;;;;4933366;29;20042;-86
2021/12/01 13:18:20;;;;;;;;;;;7.30;99.90;;;;;;4950453;28;20694;-86
2021/12/01 13:20:50;;;;;;;;;;;7.30;99.90;;;;;;4936722;29;19969;-86
2021/12/01 13:23:15;;;;;;;;;;;7.30;99.90;;;;;;4934425;29;19922;-84
2021/12/01 13:25:51;;;;;;;;;;;7.20;99.90;;;;;;4941286;28;19922;-84
2021/12/01 13:28:25;;;;;;;;;;;7.10;99.90;;;;;;4939339;29;20021;-84
2021/12/01 13:30:57;;;;;;;;;;;7.10;99.90;;;;;;4935998;29;19930;-88
2021/12/01 13:33:22;;;;;;;;;;;7.10;99.90;;;;;;4937809;29;19922;-83
2021/12/01 13:35:49;;;;;;;;;;;7.00;99.90;;;;;;4947535;28;19922;-86
2021/12/01 13:38:28;;;;;;;;;;;7.00;99.90;;;;;;4951745;28;20243;-84
2021/12/01 13:40:54;;;;;;;;;;;7.00;99.90;;;;;;4936201;29;20009;-85
2021/12/01 13:43:20;;;;;;;;;;;7.00;99.90;;;;;;4947867;29;19933;-86
2021/12/01 13:46:02;;;;;;;;;;;6.90;99.90;;;;;;4943422;28;20052;-86
2021/12/01 13:48:46;;;;;;;;;;;6.90;99.90;;;;;;4955681;28;19929;-86
2021/12/01 13:51:16;;;;;;;;;;;6.80;99.90;;;;;;4934482;29;19938;-85
2021/12/01 13:53:44;;;;;;;;;;;8.70;99.90;;;;;;4942978;28;19922;-83
2021/12/01 13:56:19;;;;;;;;;;;6.70;99.90;;;;;;4953206;28;19934;-84
2021/12/01 13:59:02;;;;;;;;;;;6.70;99.90;;;;;;4943171;28;19922;-86
2021/12/01 14:01:28;;;;;;;;;;;7.40;99.90;;;;;;4958158;28;20244;-85
2021/12/01 14:04:05;;;;;;;;;;;6.70;99.90;;;;;;4971621;28;19918;-85
2021/12/01 14:06:38;;;;;;;;;;;5.90;99.90;;;;;;4957427;28;19965;-86
2021/12/01 14:09:16;;;;;;;;;;;6.60;99.90;;;;;;4949571;28;20402;-86
2021/12/01 14:11:53;;;;;;;;;;;6.30;99.90;;;;;;4954733;28;19952;-85
2021/12/01 14:14:25;;;;;;;;;;;7.10;99.90;;;;;;4972518;28;19929;-86
2021/12/01 14:17:17;;;;;;;;;;;6.50;99.90;;;;;;4937392;28;19989;-86
2021/12/01 14:19:53;;;;;;;;;;;6.50;99.90;;;;;;4951822;28;20017;-86
2021/12/01 14:22:20;;;;;;;;;;;6.60;99.90;;;;;;4943525;28;19926;-87
2021/12/01 14:24:50;;;;;;;;;;;6.50;99.90;;;;;;4955644;28;19922;-87
2021/12/01 14:27:15;;;;;;;;;;;6.40;99.90;;;;;;4954680;28;19961;-84
2021/12/01 14:29:41;;;;;;;;;;;6.50;99.90;;;;;;4953292;28;19968;-85
2021/12/01 14:32:08;;;;;;;;;;;8.20;99.90;;;;;;4955410;28;19922;-84
2021/12/01 14:34:37;;;;;;;;;;;6.50;99.90;;;;;;4976604;28;20270;-84
2021/12/01 14:37:04;;;;;;;;;;;6.40;99.90;;;;;;4969078;28;19922;-84
2021/12/01 14:39:31;;;;;;;;;;;7.00;99.90;;;;;;4970294;28;20510;-82
2021/12/01 14:41:58;;;;;;;;;;;6.40;99.90;;;;;;4961203;28;19922;-83
2021/12/01 14:44:37;;;;;;;;;;;6.40;99.90;;;;;;4967733;28;19918;-86
2021/12/01 14:47:11;;;;;;;;;;;6.40;99.90;;;;;;4955207;28;19922;-82
2021/12/01 14:49:36;;;;;;;;;;;7.00;99.90;;;;;;4956537;28;20290;-84
2021/12/01 14:52:09;;;;;;;;;;;6.20;99.90;;;;;;4952993;28;19926;-83
2021/12/01 14:54:37;;;;;;;;;;;6.30;99.90;;;;;;4956146;28;19918;-84
2021/12/01 14:57:21;;;;;;;;;;;6.80;99.90;;;;;;4943352;28;19922;-82
2021/12/01 14:59:52;;;;;;;;;;;6.20;99.90;;;;;;4952017;28;19966;-85
2021/12/01 15:02:34;;;;;;;;;;;6.20;99.90;;;;;;4956813;28;20556;-87
2021/12/01 15:05:17;;;;;;;;;;;6.20;99.90;;;;;;4953469;28;19929;-86
2021/12/01 15:07:50;;;;;;;;;;;6.20;99.90;;;;;;4956170;28;19930;-84
2021/12/01 15:10:39;;;;;;;;;;;5.60;99.90;;;;;;4952974;28;19962;-82
2021/12/01 15:13:11;;;;;;;;;;;6.20;99.90;;;;;;4953569;28;20271;-84
2021/12/01 15:16:03;;;;;;;;;;;6.20;99.90;;;;;;4962932;28;19933;-84
2021/12/01 15:18:42;;;;;;;;;;;6.20;99.90;;;;;;4929567;28;19934;-84
2021/12/01 15:21:18;;;;;;;;;;;6.20;99.90;;;;;;4947696;28;19985;-83
2021/12/01 15:23:57;;;;;;;;;;;6.20;99.90;;;;;;4954439;28;20631;-83
2021/12/01 15:26:25;;;;;;;;;;;6.10;99.90;;;;;;4964994;28;20324;-83
2021/12/01 15:31:24;;;;;;;;;;;6.10;99.90;;;;;;4970016;28;19934;-82
2021/12/01 15:33:50;;;;;;;;;;;6.10;99.90;;;;;;4985062;28;19981;-83
2021/12/01 15:36:16;;;;;;;;;;;6.10;99.90;;;;;;4974760;28;19953;-86
2021/12/01 15:38:42;;;;;;;;;;;6.10;99.90;;;;;;4955963;28;19928;-84
2021/12/01 15:41:07;;;;;;;;;;;6.00;99.90;;;;;;4954952;28;20356;-84
2021/12/01 15:43:33;;;;;;;;;;;6.00;99.90;;;;;;4958637;28;19926;-83
2021/12/01 15:46:01;;;;;;;;;;;6.00;99.90;;;;;;4967465;28;19965;-84
2021/12/01 15:48:30;;;;;;;;;;;6.00;99.90;;;;;;4941597;29;19926;-86
2021/12/01 15:50:55;;;;;;;;;;;5.90;99.90;;;;;;4948362;28;19926;-85
2021/12/01 15:53:25;;;;;;;;;;;6.00;99.90;;;;;;4953670;28;19922;-88
2021/12/01 15:55:55;;;;;;;;;;;7.20;99.90;;;;;;4934281;29;19946;-87